Louisville, Alabama
Current Conditions -  °F | °C
As of 6:40 PM on Saturday 20 Dec 2014 (Local Time) from KTOI Reporting Station
Haze Haze  
Wind Chill: 51°   Ceiling: 500
Heat Index: 51°   Visibility: 6mi
Dew Point: 49°   Wind: 5mph
Humidity: 92%   Direction: 40°NE
Pressure: 30.17"   Gusts: NA
Location:  31.78°N, 85.56°W
Report Text: KTOI 210040Z AUTO 04004KT 6SM BR OVC005 11/09 A3017 RMK AO2 T01060094
Loading
Personal Weather Stations






























Interactive Weather Map New forecast layout! Learn more

10-Day Weather Forecast

Advertisements
Track Severe Weather on mobile